sensor_id;sensor_type;location;lat;lon;timestamp;P1;durP1;ratioP1;P2;durP2;ratioP2
4742;SDS011;24293;48.154;7.748;2023-05-13T00:00:28;12.47;;;7.73;;
4742;SDS011;24293;48.154;7.748;2023-05-13T00:02:54;12.50;;;7.30;;
4742;SDS011;24293;48.154;7.748;2023-05-13T00:05:21;9.93;;;7.07;;
4742;SDS011;24293;48.154;7.748;2023-05-13T00:07:47;8.13;;;6.50;;
4742;SDS011;24293;48.154;7.748;2023-05-13T00:10:14;9.40;;;7.80;;
4742;SDS011;24293;48.154;7.748;2023-05-13T00:12:42;14.00;;;9.90;;
4742;SDS011;24293;48.154;7.748;2023-05-13T00:15:09;11.70;;;8.80;;
4742;SDS011;24293;48.154;7.748;2023-05-13T00:17:35;10.93;;;8.27;;
4742;SDS011;24293;48.154;7.748;2023-05-13T00:20:02;8.30;;;6.80;;
4742;SDS011;24293;48.154;7.748;2023-05-13T00:22:29;9.63;;;6.93;;
4742;SDS011;24293;48.154;7.748;2023-05-13T00:24:55;8.10;;;6.43;;
4742;SDS011;24293;48.154;7.748;2023-05-13T00:27:22;7.97;;;6.37;;
4742;SDS011;24293;48.154;7.748;2023-05-13T00:29:50;8.60;;;5.97;;
4742;SDS011;24293;48.154;7.748;2023-05-13T00:32:16;8.57;;;6.27;;
4742;SDS011;24293;48.154;7.748;2023-05-13T00:34:43;8.00;;;6.57;;
4742;SDS011;24293;48.154;7.748;2023-05-13T00:37:09;7.57;;;6.77;;
4742;SDS011;24293;48.154;7.748;2023-05-13T00:39:36;7.63;;;6.50;;
4742;SDS011;24293;48.154;7.748;2023-05-13T00:42:02;9.40;;;6.90;;
4742;SDS011;24293;48.154;7.748;2023-05-13T00:44:29;9.43;;;6.57;;
4742;SDS011;24293;48.154;7.748;2023-05-13T00:46:57;14.63;;;6.17;;
4742;SDS011;24293;48.154;7.748;2023-05-13T00:49:24;10.20;;;8.47;;
4742;SDS011;24293;48.154;7.748;2023-05-13T00:51:50;18.07;;;9.00;;
4742;SDS011;24293;48.154;7.748;2023-05-13T00:54:19;33.20;;;14.83;;
4742;SDS011;24293;48.154;7.748;2023-05-13T00:56:45;18.73;;;11.70;;
4742;SDS011;24293;48.154;7.748;2023-05-13T00:59:12;14.37;;;9.30;;
4742;SDS011;24293;48.154;7.748;2023-05-13T01:01:41;9.40;;;7.43;;
4742;SDS011;24293;48.154;7.748;2023-05-13T01:04:13;8.80;;;7.53;;
4742;SDS011;24293;48.154;7.748;2023-05-13T01:06:44;9.97;;;7.60;;
4742;SDS011;24293;48.154;7.748;2023-05-13T01:09:14;9.77;;;6.57;;
4742;SDS011;24293;48.154;7.748;2023-05-13T01:11:42;8.30;;;6.87;;
4742;SDS011;24293;48.154;7.748;2023-05-13T01:14:11;10.80;;;6.30;;
4742;SDS011;24293;48.154;7.748;2023-05-13T01:16:39;7.43;;;6.40;;
4742;SDS011;24293;48.154;7.748;2023-05-13T01:19:16;8.77;;;6.27;;
4742;SDS011;24293;48.154;7.748;2023-05-13T01:21:51;9.10;;;6.70;;
4742;SDS011;24293;48.154;7.748;2023-05-13T01:24:18;7.60;;;6.43;;
4742;SDS011;24293;48.154;7.748;2023-05-13T01:26:44;8.00;;;5.87;;
4742;SDS011;24293;48.154;7.748;2023-05-13T01:29:11;6.53;;;5.40;;
4742;SDS011;24293;48.154;7.748;2023-05-13T01:31:37;12.33;;;6.10;;
4742;SDS011;24293;48.154;7.748;2023-05-13T01:34:04;12.10;;;6.47;;
4742;SDS011;24293;48.154;7.748;2023-05-13T01:36:31;8.47;;;6.60;;
4742;SDS011;24293;48.154;7.748;2023-05-13T01:38:59;9.83;;;7.23;;
4742;SDS011;24293;48.154;7.748;2023-05-13T01:41:26;10.07;;;7.10;;
4742;SDS011;24293;48.154;7.748;2023-05-13T01:43:52;10.50;;;6.87;;
4742;SDS011;24293;48.154;7.748;2023-05-13T01:46:19;11.83;;;7.37;;
4742;SDS011;24293;48.154;7.748;2023-05-13T01:48:45;10.83;;;7.17;;
4742;SDS011;24293;48.154;7.748;2023-05-13T01:51:12;10.30;;;6.23;;
4742;SDS011;24293;48.154;7.748;2023-05-13T01:53:38;9.90;;;7.10;;
4742;SDS011;24293;48.154;7.748;2023-05-13T01:56:08;11.60;;;7.43;;
4742;SDS011;24293;48.154;7.748;2023-05-13T01:58:35;7.93;;;6.67;;
4742;SDS011;24293;48.154;7.748;2023-05-13T02:01:01;10.30;;;7.10;;
4742;SDS011;24293;48.154;7.748;2023-05-13T02:03:28;10.10;;;7.10;;
4742;SDS011;24293;48.154;7.748;2023-05-13T02:05:55;11.10;;;7.40;;
4742;SDS011;24293;48.154;7.748;2023-05-13T02:08:21;11.47;;;7.30;;
4742;SDS011;24293;48.154;7.748;2023-05-13T02:10:53;9.00;;;6.70;;
4742;SDS011;24293;48.154;7.748;2023-05-13T02:13:21;16.93;;;7.70;;
4742;SDS011;24293;48.154;7.748;2023-05-13T02:15:47;10.73;;;7.63;;
4742;SDS011;24293;48.154;7.748;2023-05-13T02:18:14;9.07;;;7.10;;
4742;SDS011;24293;48.154;7.748;2023-05-13T02:20:40;11.27;;;7.67;;
4742;SDS011;24293;48.154;7.748;2023-05-13T02:23:07;9.73;;;7.60;;
4742;SDS011;24293;48.154;7.748;2023-05-13T02:25:33;9.37;;;7.00;;
4742;SDS011;24293;48.154;7.748;2023-05-13T02:28:00;13.93;;;7.73;;
4742;SDS011;24293;48.154;7.748;2023-05-13T02:30:27;10.30;;;7.60;;
4742;SDS011;24293;48.154;7.748;2023-05-13T02:32:54;10.00;;;6.97;;
4742;SDS011;24293;48.154;7.748;2023-05-13T02:35:21;12.10;;;7.60;;
4742;SDS011;24293;48.154;7.748;2023-05-13T02:37:48;11.57;;;7.77;;
4742;SDS011;24293;48.154;7.748;2023-05-13T02:40:15;8.93;;;7.40;;
4742;SDS011;24293;48.154;7.748;2023-05-13T02:42:41;11.03;;;7.53;;
4742;SDS011;24293;48.154;7.748;2023-05-13T02:45:08;10.13;;;7.40;;
4742;SDS011;24293;48.154;7.748;2023-05-13T02:47:36;11.40;;;7.20;;
4742;SDS011;24293;48.154;7.748;2023-05-13T02:50:03;11.77;;;6.90;;
4742;SDS011;24293;48.154;7.748;2023-05-13T02:52:32;10.83;;;7.23;;
4742;SDS011;24293;48.154;7.748;2023-05-13T02:55:00;10.73;;;7.93;;
4742;SDS011;24293;48.154;7.748;2023-05-13T02:57:26;12.13;;;8.53;;
4742;SDS011;24293;48.154;7.748;2023-05-13T02:59:53;13.03;;;8.27;;
4742;SDS011;24293;48.154;7.748;2023-05-13T03:02:19;11.33;;;7.60;;
4742;SDS011;24293;48.154;7.748;2023-05-13T03:04:47;12.10;;;7.37;;
4742;SDS011;24293;48.154;7.748;2023-05-13T03:07:13;11.10;;;7.20;;
4742;SDS011;24293;48.154;7.748;2023-05-13T03:09:40;12.33;;;7.23;;
4742;SDS011;24293;48.154;7.748;2023-05-13T03:12:07;12.60;;;8.10;;
4742;SDS011;24293;48.154;7.748;2023-05-13T03:14:33;9.70;;;7.40;;
4742;SDS011;24293;48.154;7.748;2023-05-13T03:17:01;9.10;;;7.50;;
4742;SDS011;24293;48.154;7.748;2023-05-13T03:19:27;10.00;;;7.70;;
4742;SDS011;24293;48.154;7.748;2023-05-13T03:21:55;9.47;;;7.17;;
4742;SDS011;24293;48.154;7.748;2023-05-13T03:24:22;12.40;;;8.13;;
4742;SDS011;24293;48.154;7.748;2023-05-13T03:26:48;11.67;;;8.17;;
4742;SDS011;24293;48.154;7.748;2023-05-13T03:29:14;10.23;;;7.63;;
4742;SDS011;24293;48.154;7.748;2023-05-13T03:31:41;13.73;;;7.87;;
4742;SDS011;24293;48.154;7.748;2023-05-13T03:34:07;11.17;;;7.33;;
4742;SDS011;24293;48.154;7.748;2023-05-13T03:36:34;10.00;;;7.63;;
4742;SDS011;24293;48.154;7.748;2023-05-13T03:39:02;11.63;;;8.43;;
4742;SDS011;24293;48.154;7.748;2023-05-13T03:41:28;9.90;;;7.40;;
4742;SDS011;24293;48.154;7.748;2023-05-13T03:43:55;12.73;;;7.97;;
4742;SDS011;24293;48.154;7.748;2023-05-13T03:46:21;11.70;;;8.50;;
4742;SDS011;24293;48.154;7.748;2023-05-13T03:48:48;10.57;;;8.30;;
4742;SDS011;24293;48.154;7.748;2023-05-13T03:51:14;13.33;;;8.53;;
4742;SDS011;24293;48.154;7.748;2023-05-13T03:53:41;11.00;;;8.27;;
4742;SDS011;24293;48.154;7.748;2023-05-13T03:56:09;11.57;;;7.83;;
4742;SDS011;24293;48.154;7.748;2023-05-13T03:58:35;10.80;;;8.70;;
4742;SDS011;24293;48.154;7.748;2023-05-13T04:01:03;9.93;;;7.57;;
4742;SDS011;24293;48.154;7.748;2023-05-13T04:03:29;11.07;;;8.30;;
4742;SDS011;24293;48.154;7.748;2023-05-13T04:05:56;11.77;;;8.53;;
4742;SDS011;24293;48.154;7.748;2023-05-13T04:08:22;9.87;;;8.10;;
4742;SDS011;24293;48.154;7.748;2023-05-13T04:10:49;10.33;;;7.90;;
4742;SDS011;24293;48.154;7.748;2023-05-13T04:13:16;10.37;;;7.90;;
4742;SDS011;24293;48.154;7.748;2023-05-13T04:15:43;11.30;;;7.87;;
4742;SDS011;24293;48.154;7.748;2023-05-13T04:18:09;12.93;;;8.00;;
4742;SDS011;24293;48.154;7.748;2023-05-13T04:20:36;11.13;;;7.83;;
4742;SDS011;24293;48.154;7.748;2023-05-13T04:23:03;13.77;;;8.40;;
4742;SDS011;24293;48.154;7.748;2023-05-13T04:25:29;12.07;;;8.30;;
4742;SDS011;24293;48.154;7.748;2023-05-13T04:27:56;18.23;;;9.07;;
4742;SDS011;24293;48.154;7.748;2023-05-13T04:30:23;12.57;;;8.10;;
4742;SDS011;24293;48.154;7.748;2023-05-13T04:32:50;12.03;;;8.70;;
4742;SDS011;24293;48.154;7.748;2023-05-13T04:35:16;11.60;;;8.37;;
4742;SDS011;24293;48.154;7.748;2023-05-13T04:37:43;11.73;;;8.33;;
4742;SDS011;24293;48.154;7.748;2023-05-13T04:40:10;9.57;;;7.90;;
4742;SDS011;24293;48.154;7.748;2023-05-13T04:42:36;12.80;;;8.33;;
4742;SDS011;24293;48.154;7.748;2023-05-13T04:45:03;13.10;;;8.00;;
4742;SDS011;24293;48.154;7.748;2023-05-13T04:47:31;9.77;;;7.87;;
4742;SDS011;24293;48.154;7.748;2023-05-13T04:49:59;11.37;;;8.70;;
4742;SDS011;24293;48.154;7.748;2023-05-13T04:52:25;14.23;;;8.90;;
4742;SDS011;24293;48.154;7.748;2023-05-13T04:54:52;10.30;;;8.50;;
4742;SDS011;24293;48.154;7.748;2023-05-13T04:57:18;12.03;;;8.83;;
4742;SDS011;24293;48.154;7.748;2023-05-13T04:59:45;11.30;;;8.70;;
4742;SDS011;24293;48.154;7.748;2023-05-13T05:02:11;9.90;;;8.30;;
4742;SDS011;24293;48.154;7.748;2023-05-13T05:04:39;15.40;;;7.60;;
4742;SDS011;24293;48.154;7.748;2023-05-13T05:07:05;9.70;;;7.77;;
4742;SDS011;24293;48.154;7.748;2023-05-13T05:09:32;10.40;;;7.37;;
4742;SDS011;24293;48.154;7.748;2023-05-13T05:11:58;10.40;;;7.10;;
4742;SDS011;24293;48.154;7.748;2023-05-13T05:14:25;10.33;;;7.57;;
4742;SDS011;24293;48.154;7.748;2023-05-13T05:16:51;8.93;;;7.43;;
4742;SDS011;24293;48.154;7.748;2023-05-13T05:19:18;11.03;;;8.50;;
4742;SDS011;24293;48.154;7.748;2023-05-13T05:21:49;9.97;;;8.07;;
4742;SDS011;24293;48.154;7.748;2023-05-13T05:24:16;10.53;;;7.70;;
4742;SDS011;24293;48.154;7.748;2023-05-13T05:26:42;9.90;;;7.40;;
4742;SDS011;24293;48.154;7.748;2023-05-13T05:29:09;9.20;;;7.30;;
4742;SDS011;24293;48.154;7.748;2023-05-13T05:31:35;13.97;;;7.83;;
4742;SDS011;24293;48.154;7.748;2023-05-13T05:34:02;9.93;;;6.87;;
4742;SDS011;24293;48.154;7.748;2023-05-13T05:36:29;11.37;;;7.60;;
4742;SDS011;24293;48.154;7.748;2023-05-13T05:38:57;10.00;;;7.30;;
4742;SDS011;24293;48.154;7.748;2023-05-13T05:41:23;11.60;;;7.43;;
4742;SDS011;24293;48.154;7.748;2023-05-13T05:43:50;10.73;;;7.40;;
4742;SDS011;24293;48.154;7.748;2023-05-13T05:46:17;12.30;;;8.03;;
4742;SDS011;24293;48.154;7.748;2023-05-13T05:48:43;11.70;;;8.20;;
4742;SDS011;24293;48.154;7.748;2023-05-13T05:51:10;12.00;;;9.00;;
4742;SDS011;24293;48.154;7.748;2023-05-13T05:53:36;13.10;;;8.30;;
4742;SDS011;24293;48.154;7.748;2023-05-13T05:56:06;11.60;;;8.73;;
4742;SDS011;24293;48.154;7.748;2023-05-13T05:58:33;11.20;;;7.20;;
4742;SDS011;24293;48.154;7.748;2023-05-13T06:01:00;7.90;;;7.10;;
4742;SDS011;24293;48.154;7.748;2023-05-13T06:03:26;10.53;;;7.00;;
4742;SDS011;24293;48.154;7.748;2023-05-13T06:05:53;10.23;;;6.80;;
4742;SDS011;24293;48.154;7.748;2023-05-13T06:08:19;7.10;;;5.70;;
4742;SDS011;24293;48.154;7.748;2023-05-13T06:10:46;9.47;;;6.57;;
4742;SDS011;24293;48.154;7.748;2023-05-13T06:13:14;8.60;;;7.00;;
4742;SDS011;24293;48.154;7.748;2023-05-13T06:15:41;10.03;;;6.43;;
4742;SDS011;24293;48.154;7.748;2023-05-13T06:18:07;9.13;;;6.70;;
4742;SDS011;24293;48.154;7.748;2023-05-13T06:20:34;10.03;;;6.80;;
4742;SDS011;24293;48.154;7.748;2023-05-13T06:23:00;9.47;;;6.53;;
4742;SDS011;24293;48.154;7.748;2023-05-13T06:25:27;10.07;;;7.70;;
4742;SDS011;24293;48.154;7.748;2023-05-13T06:27:53;8.53;;;6.53;;
4742;SDS011;24293;48.154;7.748;2023-05-13T06:30:21;10.60;;;6.30;;
4742;SDS011;24293;48.154;7.748;2023-05-13T06:32:48;8.63;;;6.27;;
4742;SDS011;24293;48.154;7.748;2023-05-13T06:35:14;8.50;;;6.50;;
4742;SDS011;24293;48.154;7.748;2023-05-13T06:37:41;7.80;;;5.87;;
4742;SDS011;24293;48.154;7.748;2023-05-13T06:40:07;6.90;;;5.50;;
4742;SDS011;24293;48.154;7.748;2023-05-13T06:42:34;7.67;;;5.60;;
4742;SDS011;24293;48.154;7.748;2023-05-13T06:45:05;8.37;;;5.30;;
4742;SDS011;24293;48.154;7.748;2023-05-13T06:47:33;6.93;;;4.77;;
4742;SDS011;24293;48.154;7.748;2023-05-13T06:50:00;9.00;;;4.83;;
4742;SDS011;24293;48.154;7.748;2023-05-13T06:52:27;6.93;;;4.90;;
4742;SDS011;24293;48.154;7.748;2023-05-13T06:54:54;7.27;;;4.30;;
4742;SDS011;24293;48.154;7.748;2023-05-13T06:57:21;7.80;;;5.07;;
4742;SDS011;24293;48.154;7.748;2023-05-13T06:59:48;6.33;;;5.17;;
4742;SDS011;24293;48.154;7.748;2023-05-13T07:02:14;8.80;;;4.80;;
4742;SDS011;24293;48.154;7.748;2023-05-13T07:04:42;8.07;;;5.53;;
4742;SDS011;24293;48.154;7.748;2023-05-13T07:07:08;8.83;;;4.20;;
4742;SDS011;24293;48.154;7.748;2023-05-13T07:09:35;7.30;;;5.50;;
4742;SDS011;24293;48.154;7.748;2023-05-13T07:12:02;7.10;;;5.60;;
4742;SDS011;24293;48.154;7.748;2023-05-13T07:14:28;7.90;;;4.63;;
4742;SDS011;24293;48.154;7.748;2023-05-13T07:16:55;8.20;;;4.80;;
4742;SDS011;24293;48.154;7.748;2023-05-13T07:19:22;6.20;;;5.07;;
4742;SDS011;24293;48.154;7.748;2023-05-13T07:21:51;7.70;;;5.93;;
4742;SDS011;24293;48.154;7.748;2023-05-13T07:24:17;5.50;;;4.77;;
4742;SDS011;24293;48.154;7.748;2023-05-13T07:26:44;5.77;;;4.47;;
4742;SDS011;24293;48.154;7.748;2023-05-13T07:29:10;6.10;;;4.97;;
4742;SDS011;24293;48.154;7.748;2023-05-13T07:31:37;7.03;;;4.90;;
4742;SDS011;24293;48.154;7.748;2023-05-13T07:34:03;5.70;;;5.10;;
4742;SDS011;24293;48.154;7.748;2023-05-13T07:36:30;7.20;;;5.00;;
4742;SDS011;24293;48.154;7.748;2023-05-13T07:38:58;5.67;;;4.63;;
4742;SDS011;24293;48.154;7.748;2023-05-13T07:41:25;9.30;;;6.40;;
4742;SDS011;24293;48.154;7.748;2023-05-13T07:43:52;8.90;;;5.40;;
4742;SDS011;24293;48.154;7.748;2023-05-13T07:46:19;7.90;;;4.97;;
4742;SDS011;24293;48.154;7.748;2023-05-13T07:48:45;5.90;;;4.70;;
4742;SDS011;24293;48.154;7.748;2023-05-13T07:51:12;5.97;;;4.17;;
4742;SDS011;24293;48.154;7.748;2023-05-13T07:53:40;6.47;;;4.37;;
4742;SDS011;24293;48.154;7.748;2023-05-13T07:56:08;7.80;;;5.10;;
4742;SDS011;24293;48.154;7.748;2023-05-13T07:58:34;5.33;;;4.47;;
4742;SDS011;24293;48.154;7.748;2023-05-13T08:01:01;6.00;;;4.83;;
4742;SDS011;24293;48.154;7.748;2023-05-13T08:03:28;6.57;;;4.40;;
4742;SDS011;24293;48.154;7.748;2023-05-13T08:05:54;5.80;;;4.70;;
4742;SDS011;24293;48.154;7.748;2023-05-13T08:08:21;4.93;;;4.20;;
4742;SDS011;24293;48.154;7.748;2023-05-13T08:10:47;7.53;;;4.73;;
4742;SDS011;24293;48.154;7.748;2023-05-13T08:13:15;6.40;;;4.53;;
4742;SDS011;24293;48.154;7.748;2023-05-13T08:15:42;6.80;;;4.60;;
4742;SDS011;24293;48.154;7.748;2023-05-13T08:18:08;7.70;;;5.47;;
4742;SDS011;24293;48.154;7.748;2023-05-13T08:20:35;7.33;;;5.53;;
4742;SDS011;24293;48.154;7.748;2023-05-13T08:23:01;6.83;;;4.43;;
4742;SDS011;24293;48.154;7.748;2023-05-13T08:25:28;6.83;;;5.17;;
4742;SDS011;24293;48.154;7.748;2023-05-13T08:27:55;5.40;;;4.30;;
4742;SDS011;24293;48.154;7.748;2023-05-13T08:30:23;7.77;;;4.70;;
4742;SDS011;24293;48.154;7.748;2023-05-13T08:32:50;5.80;;;4.27;;
4742;SDS011;24293;48.154;7.748;2023-05-13T08:35:16;6.90;;;4.67;;
4742;SDS011;24293;48.154;7.748;2023-05-13T08:37:43;5.77;;;4.30;;
4742;SDS011;24293;48.154;7.748;2023-05-13T08:40:09;8.07;;;3.63;;
4742;SDS011;24293;48.154;7.748;2023-05-13T08:42:37;6.83;;;4.50;;
4742;SDS011;24293;48.154;7.748;2023-05-13T08:45:04;6.47;;;4.00;;
4742;SDS011;24293;48.154;7.748;2023-05-13T08:47:36;4.80;;;3.10;;
4742;SDS011;24293;48.154;7.748;2023-05-13T08:50:05;11.30;;;6.00;;
4742;SDS011;24293;48.154;7.748;2023-05-13T08:52:31;5.40;;;3.40;;
4742;SDS011;24293;48.154;7.748;2023-05-13T08:54:58;4.90;;;3.77;;
4742;SDS011;24293;48.154;7.748;2023-05-13T08:57:25;6.87;;;3.70;;
4742;SDS011;24293;48.154;7.748;2023-05-13T08:59:52;4.40;;;3.17;;
4742;SDS011;24293;48.154;7.748;2023-05-13T09:02:18;6.77;;;4.53;;
4742;SDS011;24293;48.154;7.748;2023-05-13T09:04:46;5.30;;;3.20;;
4742;SDS011;24293;48.154;7.748;2023-05-13T09:07:15;4.33;;;3.43;;
4742;SDS011;24293;48.154;7.748;2023-05-13T09:09:41;3.60;;;3.03;;
4742;SDS011;24293;48.154;7.748;2023-05-13T09:12:08;5.07;;;3.50;;
4742;SDS011;24293;48.154;7.748;2023-05-13T09:14:35;6.43;;;3.50;;
4742;SDS011;24293;48.154;7.748;2023-05-13T09:17:02;4.33;;;3.37;;
4742;SDS011;24293;48.154;7.748;2023-05-13T09:19:28;6.40;;;4.30;;
4742;SDS011;24293;48.154;7.748;2023-05-13T09:21:56;7.20;;;3.07;;
4742;SDS011;24293;48.154;7.748;2023-05-13T09:24:22;5.80;;;3.07;;
4742;SDS011;24293;48.154;7.748;2023-05-13T09:26:50;3.80;;;3.00;;
4742;SDS011;24293;48.154;7.748;2023-05-13T09:29:17;5.50;;;3.57;;
4742;SDS011;24293;48.154;7.748;2023-05-13T09:31:45;5.60;;;3.10;;
4742;SDS011;24293;48.154;7.748;2023-05-13T09:34:13;7.63;;;3.27;;
4742;SDS011;24293;48.154;7.748;2023-05-13T09:36:39;10.47;;;3.60;;
4742;SDS011;24293;48.154;7.748;2023-05-13T09:39:09;5.50;;;3.23;;
4742;SDS011;24293;48.154;7.748;2023-05-13T09:41:36;4.27;;;2.90;;
4742;SDS011;24293;48.154;7.748;2023-05-13T09:44:03;7.60;;;3.40;;
4742;SDS011;24293;48.154;7.748;2023-05-13T09:46:30;3.20;;;2.47;;
4742;SDS011;24293;48.154;7.748;2023-05-13T09:48:57;5.03;;;3.10;;
4742;SDS011;24293;48.154;7.748;2023-05-13T09:51:24;8.30;;;3.00;;
4742;SDS011;24293;48.154;7.748;2023-05-13T09:53:51;6.27;;;2.80;;
4742;SDS011;24293;48.154;7.748;2023-05-13T09:56:20;3.33;;;2.67;;
4742;SDS011;24293;48.154;7.748;2023-05-13T09:58:50;4.90;;;2.90;;
4742;SDS011;24293;48.154;7.748;2023-05-13T10:01:16;5.77;;;2.53;;
4742;SDS011;24293;48.154;7.748;2023-05-13T10:03:43;5.63;;;2.83;;
4742;SDS011;24293;48.154;7.748;2023-05-13T10:06:10;4.07;;;2.60;;
4742;SDS011;24293;48.154;7.748;2023-05-13T10:08:36;6.00;;;2.50;;
4742;SDS011;24293;48.154;7.748;2023-05-13T10:11:04;3.43;;;2.43;;
4742;SDS011;24293;48.154;7.748;2023-05-13T10:13:33;4.30;;;2.70;;
4742;SDS011;24293;48.154;7.748;2023-05-13T10:15:59;5.73;;;3.00;;
4742;SDS011;24293;48.154;7.748;2023-05-13T10:18:26;4.57;;;3.07;;
4742;SDS011;24293;48.154;7.748;2023-05-13T10:20:54;9.13;;;3.10;;
4742;SDS011;24293;48.154;7.748;2023-05-13T10:23:23;3.90;;;2.40;;
4742;SDS011;24293;48.154;7.748;2023-05-13T10:25:49;4.70;;;3.07;;
4742;SDS011;24293;48.154;7.748;2023-05-13T10:28:16;8.33;;;2.53;;
4742;SDS011;24293;48.154;7.748;2023-05-13T10:30:44;7.47;;;3.53;;
4742;SDS011;24293;48.154;7.748;2023-05-13T10:33:10;11.50;;;2.60;;
4742;SDS011;24293;48.154;7.748;2023-05-13T10:35:37;4.97;;;2.63;;
4742;SDS011;24293;48.154;7.748;2023-05-13T10:38:06;3.60;;;2.40;;
4742;SDS011;24293;48.154;7.748;2023-05-13T10:40:43;3.93;;;2.80;;
4742;SDS011;24293;48.154;7.748;2023-05-13T10:43:15;3.30;;;2.40;;
4742;SDS011;24293;48.154;7.748;2023-05-13T10:45:44;8.10;;;3.17;;
4742;SDS011;24293;48.154;7.748;2023-05-13T10:48:11;3.37;;;2.53;;
4742;SDS011;24293;48.154;7.748;2023-05-13T10:50:38;5.13;;;3.20;;
4742;SDS011;24293;48.154;7.748;2023-05-13T10:53:08;4.70;;;2.90;;
4742;SDS011;24293;48.154;7.748;2023-05-13T10:55:39;10.30;;;3.40;;
4742;SDS011;24293;48.154;7.748;2023-05-13T10:58:07;5.30;;;3.00;;
4742;SDS011;24293;48.154;7.748;2023-05-13T11:00:34;7.27;;;3.10;;
4742;SDS011;24293;48.154;7.748;2023-05-13T11:05:58;6.83;;;2.73;;
4742;SDS011;24293;48.154;7.748;2023-05-13T11:08:38;5.60;;;2.90;;
4742;SDS011;24293;48.154;7.748;2023-05-13T11:13:51;2.70;;;1.80;;
4742;SDS011;24293;48.154;7.748;2023-05-13T11:16:19;3.40;;;2.30;;
4742;SDS011;24293;48.154;7.748;2023-05-13T11:18:45;6.17;;;3.27;;
4742;SDS011;24293;48.154;7.748;2023-05-13T11:21:14;4.37;;;2.97;;
4742;SDS011;24293;48.154;7.748;2023-05-13T11:23:51;4.60;;;3.27;;
4742;SDS011;24293;48.154;7.748;2023-05-13T11:26:17;4.53;;;2.40;;
4742;SDS011;24293;48.154;7.748;2023-05-13T11:28:55;3.33;;;2.50;;
4742;SDS011;24293;48.154;7.748;2023-05-13T11:31:22;3.90;;;2.60;;
4742;SDS011;24293;48.154;7.748;2023-05-13T11:36:31;6.10;;;2.63;;
4742;SDS011;24293;48.154;7.748;2023-05-13T11:39:03;4.23;;;2.63;;
4742;SDS011;24293;48.154;7.748;2023-05-13T11:41:30;4.27;;;2.77;;
4742;SDS011;24293;48.154;7.748;2023-05-13T11:43:57;4.13;;;2.67;;
4742;SDS011;24293;48.154;7.748;2023-05-13T11:46:27;4.23;;;2.70;;
4742;SDS011;24293;48.154;7.748;2023-05-13T11:48:54;4.17;;;2.00;;
4742;SDS011;24293;48.154;7.748;2023-05-13T11:51:20;3.03;;;2.33;;
4742;SDS011;24293;48.154;7.748;2023-05-13T11:53:48;4.00;;;2.50;;
4742;SDS011;24293;48.154;7.748;2023-05-13T11:56:14;4.50;;;2.37;;
4742;SDS011;24293;48.154;7.748;2023-05-13T11:58:41;2.37;;;2.03;;
4742;SDS011;24293;48.154;7.748;2023-05-13T12:01:11;4.13;;;2.13;;
4742;SDS011;24293;48.154;7.748;2023-05-13T12:03:38;6.80;;;3.87;;
4742;SDS011;24293;48.154;7.748;2023-05-13T12:06:05;3.97;;;2.93;;
4742;SDS011;24293;48.154;7.748;2023-05-13T12:08:32;3.30;;;2.30;;
4742;SDS011;24293;48.154;7.748;2023-05-13T12:11:00;4.00;;;2.57;;
4742;SDS011;24293;48.154;7.748;2023-05-13T12:13:27;5.60;;;3.03;;
4742;SDS011;24293;48.154;7.748;2023-05-13T12:15:53;3.27;;;2.17;;
4742;SDS011;24293;48.154;7.748;2023-05-13T12:18:20;3.20;;;2.50;;
4742;SDS011;24293;48.154;7.748;2023-05-13T12:20:46;3.33;;;2.47;;
4742;SDS011;24293;48.154;7.748;2023-05-13T12:23:14;4.53;;;2.40;;
4742;SDS011;24293;48.154;7.748;2023-05-13T12:25:41;4.27;;;2.93;;
4742;SDS011;24293;48.154;7.748;2023-05-13T12:28:21;4.77;;;2.60;;
4742;SDS011;24293;48.154;7.748;2023-05-13T12:30:48;3.47;;;2.50;;
4742;SDS011;24293;48.154;7.748;2023-05-13T12:33:15;4.60;;;2.30;;
4742;SDS011;24293;48.154;7.748;2023-05-13T12:35:43;7.93;;;3.20;;
4742;SDS011;24293;48.154;7.748;2023-05-13T12:38:13;3.10;;;2.30;;
4742;SDS011;24293;48.154;7.748;2023-05-13T12:40:39;3.93;;;2.50;;
4742;SDS011;24293;48.154;7.748;2023-05-13T12:43:06;3.13;;;2.23;;
4742;SDS011;24293;48.154;7.748;2023-05-13T12:45:34;4.23;;;2.20;;
4742;SDS011;24293;48.154;7.748;2023-05-13T12:48:02;6.70;;;3.37;;
4742;SDS011;24293;48.154;7.748;2023-05-13T12:50:29;3.47;;;2.30;;
4742;SDS011;24293;48.154;7.748;2023-05-13T12:52:55;4.40;;;2.70;;
4742;SDS011;24293;48.154;7.748;2023-05-13T12:55:23;4.67;;;2.50;;
4742;SDS011;24293;48.154;7.748;2023-05-13T12:58:00;3.90;;;2.60;;
4742;SDS011;24293;48.154;7.748;2023-05-13T13:00:27;3.43;;;2.40;;
4742;SDS011;24293;48.154;7.748;2023-05-13T13:02:55;3.30;;;2.33;;
4742;SDS011;24293;48.154;7.748;2023-05-13T13:05:21;4.20;;;2.37;;
4742;SDS011;24293;48.154;7.748;2023-05-13T13:07:48;3.37;;;2.50;;
4742;SDS011;24293;48.154;7.748;2023-05-13T13:10:15;3.40;;;2.40;;
4742;SDS011;24293;48.154;7.748;2023-05-13T13:12:42;4.07;;;2.37;;
4742;SDS011;24293;48.154;7.748;2023-05-13T13:15:09;4.47;;;2.30;;
4742;SDS011;24293;48.154;7.748;2023-05-13T13:17:35;3.30;;;2.63;;
4742;SDS011;24293;48.154;7.748;2023-05-13T13:20:04;3.00;;;2.07;;
4742;SDS011;24293;48.154;7.748;2023-05-13T13:22:30;3.83;;;1.93;;
4742;SDS011;24293;48.154;7.748;2023-05-13T13:24:58;2.50;;;2.00;;
4742;SDS011;24293;48.154;7.748;2023-05-13T13:27:25;3.20;;;2.30;;
4742;SDS011;24293;48.154;7.748;2023-05-13T13:29:51;2.40;;;1.80;;
4742;SDS011;24293;48.154;7.748;2023-05-13T13:32:17;2.27;;;1.67;;
4742;SDS011;24293;48.154;7.748;2023-05-13T13:34:44;2.93;;;1.97;;
4742;SDS011;24293;48.154;7.748;2023-05-13T13:37:12;2.60;;;1.80;;
4742;SDS011;24293;48.154;7.748;2023-05-13T13:39:38;2.30;;;1.70;;
4742;SDS011;24293;48.154;7.748;2023-05-13T13:42:05;5.63;;;2.20;;
4742;SDS011;24293;48.154;7.748;2023-05-13T13:44:31;3.67;;;2.57;;
4742;SDS011;24293;48.154;7.748;2023-05-13T13:47:00;2.83;;;1.77;;
4742;SDS011;24293;48.154;7.748;2023-05-13T13:49:27;5.17;;;1.90;;
4742;SDS011;24293;48.154;7.748;2023-05-13T13:51:53;2.43;;;1.70;;
4742;SDS011;24293;48.154;7.748;2023-05-13T13:54:21;3.40;;;1.70;;
4742;SDS011;24293;48.154;7.748;2023-05-13T13:56:48;3.30;;;2.00;;
4742;SDS011;24293;48.154;7.748;2023-05-13T13:59:14;3.07;;;1.67;;
4742;SDS011;24293;48.154;7.748;2023-05-13T14:01:43;2.60;;;1.80;;
4742;SDS011;24293;48.154;7.748;2023-05-13T14:04:10;3.87;;;1.80;;
4742;SDS011;24293;48.154;7.748;2023-05-13T14:06:36;2.90;;;1.53;;
4742;SDS011;24293;48.154;7.748;2023-05-13T14:09:03;2.60;;;1.70;;
4742;SDS011;24293;48.154;7.748;2023-05-13T14:11:31;2.40;;;1.80;;
4742;SDS011;24293;48.154;7.748;2023-05-13T14:13:58;2.50;;;1.70;;
4742;SDS011;24293;48.154;7.748;2023-05-13T14:16:25;3.17;;;1.70;;
4742;SDS011;24293;48.154;7.748;2023-05-13T14:18:51;2.40;;;1.87;;
4742;SDS011;24293;48.154;7.748;2023-05-13T14:21:17;2.50;;;1.70;;
4742;SDS011;24293;48.154;7.748;2023-05-13T14:23:44;3.47;;;2.27;;
4742;SDS011;24293;48.154;7.748;2023-05-13T14:26:11;2.00;;;1.60;;
4742;SDS011;24293;48.154;7.748;2023-05-13T14:28:41;5.27;;;1.70;;
4742;SDS011;24293;48.154;7.748;2023-05-13T14:31:07;4.10;;;1.70;;
4742;SDS011;24293;48.154;7.748;2023-05-13T14:33:34;4.60;;;2.20;;
4742;SDS011;24293;48.154;7.748;2023-05-13T14:36:01;2.40;;;1.77;;
4742;SDS011;24293;48.154;7.748;2023-05-13T14:38:27;2.40;;;1.80;;
4742;SDS011;24293;48.154;7.748;2023-05-13T14:40:53;3.63;;;1.90;;
4742;SDS011;24293;48.154;7.748;2023-05-13T14:43:20;3.50;;;2.03;;
4742;SDS011;24293;48.154;7.748;2023-05-13T14:45:48;2.63;;;1.90;;
4742;SDS011;24293;48.154;7.748;2023-05-13T14:48:15;3.03;;;2.07;;
4742;SDS011;24293;48.154;7.748;2023-05-13T14:50:43;3.10;;;1.83;;
4742;SDS011;24293;48.154;7.748;2023-05-13T14:53:10;6.80;;;2.17;;
4742;SDS011;24293;48.154;7.748;2023-05-13T14:55:36;2.90;;;2.00;;
4742;SDS011;24293;48.154;7.748;2023-05-13T14:58:03;4.90;;;2.10;;
4742;SDS011;24293;48.154;7.748;2023-05-13T15:00:32;3.40;;;2.33;;
4742;SDS011;24293;48.154;7.748;2023-05-13T15:03:02;2.53;;;2.10;;
4742;SDS011;24293;48.154;7.748;2023-05-13T15:05:29;4.03;;;2.10;;